createdAt,value
2023-05-13T00:00:18.383Z,14.6867
2023-05-13T00:01:19.711Z,14.7025
2023-05-13T00:02:21.267Z,14.7169
2023-05-13T00:03:22.711Z,14.7331
2023-05-13T00:04:24.134Z,14.7345
2023-05-13T00:05:25.440Z,14.6955
2023-05-13T00:06:26.985Z,14.6442
2023-05-13T00:07:28.286Z,14.6777
2023-05-13T00:08:29.894Z,14.7041
2023-05-13T00:09:31.210Z,14.7187
2023-05-13T00:10:32.665Z,14.7292
2023-05-13T00:11:33.977Z,14.7461
2023-05-13T00:12:35.512Z,14.7452
2023-05-13T00:13:36.919Z,14.7134
2023-05-13T00:14:38.324Z,14.6526
2023-05-13T00:15:39.742Z,14.6690
2023-05-13T00:16:41.299Z,14.7089
2023-05-13T00:17:42.545Z,14.7130
2023-05-13T00:18:44.057Z,14.7276
2023-05-13T00:19:45.407Z,14.7475
2023-05-13T00:20:56.873Z,14.7518
2023-05-13T00:21:57.764Z,14.7274
2023-05-13T00:22:59.164Z,14.6444
2023-05-13T00:24:00.626Z,14.6349
2023-05-13T00:25:02.008Z,14.6811
2023-05-13T00:26:03.376Z,14.7002
2023-05-13T00:27:04.877Z,14.7163
2023-05-13T00:28:06.219Z,14.7263
2023-05-13T00:29:07.755Z,14.7358
2023-05-13T00:30:09.206Z,14.7237
2023-05-13T00:31:10.533Z,14.6339
2023-05-13T00:32:12.019Z,14.6269
2023-05-13T00:33:13.390Z,14.6659
2023-05-13T00:34:14.821Z,14.6986
2023-05-13T00:35:16.247Z,14.6996
2023-05-13T00:36:17.667Z,14.7212
2023-05-13T00:37:19.079Z,14.7317
2023-05-13T00:38:20.467Z,14.7267
2023-05-13T00:39:21.839Z,14.6249
2023-05-13T00:40:23.641Z,14.5901
2023-05-13T00:41:24.779Z,14.6473
2023-05-13T00:42:26.230Z,14.6756
2023-05-13T00:43:27.637Z,14.6990
2023-05-13T00:44:29.111Z,14.7191
2023-05-13T00:45:30.488Z,14.7284
2023-05-13T00:46:31.872Z,14.7311
2023-05-13T00:47:33.312Z,14.7081
2023-05-13T00:48:34.693Z,14.6360
2023-05-13T00:49:36.156Z,14.6598
2023-05-13T00:50:37.618Z,14.6900
2023-05-13T00:51:39.020Z,14.7037
2023-05-13T00:52:40.374Z,14.7247
2023-05-13T00:53:41.833Z,14.7473
2023-05-13T00:54:43.318Z,14.7578
2023-05-13T00:55:44.746Z,14.7432
2023-05-13T00:56:46.187Z,14.6604
2023-05-13T00:57:47.512Z,14.6417
2023-05-13T00:58:48.902Z,14.6836
2023-05-13T00:59:50.376Z,14.7046
2023-05-13T01:00:51.752Z,14.7171
2023-05-13T01:01:53.241Z,14.7376
2023-05-13T01:02:54.799Z,14.7438
2023-05-13T01:03:56.031Z,14.7524
2023-05-13T01:04:57.516Z,14.7052
2023-05-13T01:05:58.947Z,14.6401
2023-05-13T01:07:00.365Z,14.6625
2023-05-13T01:08:01.644Z,14.6953
2023-05-13T01:09:03.179Z,14.7074
2023-05-13T01:10:04.580Z,14.7124
2023-05-13T01:11:06.025Z,14.7241
2023-05-13T01:12:07.458Z,14.7419
2023-05-13T01:13:08.883Z,14.7206
2023-05-13T01:14:10.275Z,14.6121
2023-05-13T01:15:11.699Z,14.6033
2023-05-13T01:16:13.056Z,14.6458
2023-05-13T01:17:14.570Z,14.6772
2023-05-13T01:18:16.001Z,14.6951
2023-05-13T01:19:17.503Z,14.7132
2023-05-13T01:20:18.989Z,14.7259
2023-05-13T01:21:20.273Z,14.7257
2023-05-13T01:22:21.799Z,14.6735
2023-05-13T01:23:23.227Z,14.6316
2023-05-13T01:24:24.658Z,14.6300
2023-05-13T01:25:26.011Z,14.6727
2023-05-13T01:26:27.475Z,14.6959
2023-05-13T01:27:28.953Z,14.7187
2023-05-13T01:28:30.391Z,14.7319
2023-05-13T01:29:31.756Z,14.7333
2023-05-13T01:30:33.150Z,14.7058
2023-05-13T01:31:34.586Z,14.6399
2023-05-13T01:32:36.128Z,14.6458
2023-05-13T01:33:37.452Z,14.6779
2023-05-13T01:34:38.856Z,14.7025
2023-05-13T01:35:40.246Z,14.7146
2023-05-13T01:36:41.725Z,14.7313
2023-05-13T01:37:43.131Z,14.7372
2023-05-13T01:38:44.597Z,14.7341
2023-05-13T01:39:45.968Z,14.6524
2023-05-13T01:40:47.495Z,14.5690
2023-05-13T01:41:48.885Z,14.6193
2023-05-13T01:42:50.337Z,14.6604
2023-05-13T01:43:51.681Z,14.6850
2023-05-13T01:44:53.193Z,14.7019
2023-05-13T01:45:54.507Z,14.7228
2023-05-13T01:46:55.960Z,14.7313
2023-05-13T01:47:57.550Z,14.7200
2023-05-13T01:48:58.849Z,14.5914
2023-05-13T01:50:00.310Z,14.5608
2023-05-13T01:51:01.655Z,14.5977
2023-05-13T01:52:03.113Z,14.6403
2023-05-13T01:53:04.500Z,14.6598
2023-05-13T01:54:05.933Z,14.6803
2023-05-13T01:55:07.265Z,14.6988
2023-05-13T01:56:08.736Z,14.6998
2023-05-13T01:57:10.240Z,14.7078
2023-05-13T01:58:11.712Z,14.6292
2023-05-13T01:59:13.039Z,14.5998
2023-05-13T02:00:14.453Z,14.6302
2023-05-13T02:01:16.046Z,14.6655
2023-05-13T02:02:17.381Z,14.6871
2023-05-13T02:03:18.955Z,14.7052
2023-05-13T02:04:20.248Z,14.7187
2023-05-13T02:05:21.586Z,14.7179
2023-05-13T02:06:23.023Z,14.6686
2023-05-13T02:07:24.453Z,14.6347
2023-05-13T02:08:25.836Z,14.6477
2023-05-13T02:09:27.317Z,14.6686
2023-05-13T02:10:28.708Z,14.6857
2023-05-13T02:11:30.240Z,14.7041
2023-05-13T02:12:31.626Z,14.7122
2023-05-13T02:13:33.044Z,14.7120
2023-05-13T02:14:34.350Z,14.7226
2023-05-13T02:15:35.875Z,14.6664
2023-05-13T02:16:37.268Z,14.6752
2023-05-13T02:17:38.788Z,14.7005
2023-05-13T02:18:40.176Z,14.7093
2023-05-13T02:19:41.580Z,14.7239
2023-05-13T02:20:42.941Z,14.7296
2023-05-13T02:21:44.426Z,14.7317
2023-05-13T02:22:45.801Z,14.6929
2023-05-13T02:23:47.311Z,14.6341
2023-05-13T02:24:48.709Z,14.6551
2023-05-13T02:25:50.090Z,14.6859
2023-05-13T02:26:51.501Z,14.6933
2023-05-13T02:27:52.841Z,14.7029
2023-05-13T02:28:55.371Z,14.7200
2023-05-13T02:29:55.841Z,14.7368
2023-05-13T02:30:57.279Z,14.7226
2023-05-13T02:31:58.623Z,14.6487
2023-05-13T02:32:59.991Z,14.5996
2023-05-13T02:34:01.530Z,14.6466
2023-05-13T02:35:02.953Z,14.6820
2023-05-13T02:36:04.306Z,14.6935
2023-05-13T02:37:05.822Z,14.7035
2023-05-13T02:38:07.073Z,14.7202
2023-05-13T02:39:08.665Z,14.7319
2023-05-13T02:40:10.036Z,14.7329
2023-05-13T02:41:11.503Z,14.6655
2023-05-13T02:42:12.882Z,14.5731
2023-05-13T02:43:14.322Z,14.6214
2023-05-13T02:44:15.756Z,14.6625
2023-05-13T02:45:17.170Z,14.6830
2023-05-13T02:46:18.571Z,14.7052
2023-05-13T02:47:19.919Z,14.7142
2023-05-13T02:48:21.455Z,14.7169
2023-05-13T02:49:22.884Z,14.7048
2023-05-13T02:50:24.477Z,14.6275
2023-05-13T02:51:25.692Z,14.6027
2023-05-13T02:52:27.155Z,14.6487
2023-05-13T02:53:28.709Z,14.6678
2023-05-13T02:54:29.943Z,14.6742
2023-05-13T02:55:31.512Z,14.6918
2023-05-13T02:56:32.966Z,14.7021
2023-05-13T02:57:34.274Z,14.7072
2023-05-13T02:58:35.726Z,14.6935
2023-05-13T02:59:37.131Z,14.6238
2023-05-13T03:00:38.595Z,14.6019
2023-05-13T03:01:39.959Z,14.6544
2023-05-13T03:02:41.405Z,14.6503
2023-05-13T03:03:42.811Z,14.6735
2023-05-13T03:04:44.286Z,14.7023
2023-05-13T03:05:45.728Z,14.7081
2023-05-13T03:06:47.162Z,14.7076
2023-05-13T03:07:48.519Z,14.6551
2023-05-13T03:08:49.985Z,14.6265
2023-05-13T03:09:51.376Z,14.6661
2023-05-13T03:10:52.884Z,14.6871
2023-05-13T03:11:54.164Z,14.6988
2023-05-13T03:12:55.695Z,14.7136
2023-05-13T03:13:57.132Z,14.7257
2023-05-13T03:14:58.545Z,14.7218
2023-05-13T03:15:59.946Z,14.6902
2023-05-13T03:17:01.358Z,14.6043
2023-05-13T03:18:02.743Z,14.6173
2023-05-13T03:19:04.271Z,14.6581
2023-05-13T03:20:06.045Z,14.6707
2023-05-13T03:21:07.076Z,14.6922
2023-05-13T03:22:08.542Z,14.7021
2023-05-13T03:23:09.903Z,14.7214
2023-05-13T03:24:11.242Z,14.7212
2023-05-13T03:25:12.830Z,14.6863
2023-05-13T03:26:14.206Z,14.6140
2023-05-13T03:27:15.497Z,14.6275
2023-05-13T03:28:17.022Z,14.6608
2023-05-13T03:29:18.555Z,14.6779
2023-05-13T03:30:20.026Z,14.6924
2023-05-13T03:31:21.339Z,14.7072
2023-05-13T03:32:22.771Z,14.7124
2023-05-13T03:33:24.127Z,14.7230
2023-05-13T03:34:25.616Z,14.6703
2023-05-13T03:35:27.020Z,14.5887
2023-05-13T03:36:28.576Z,14.6224
2023-05-13T03:37:29.794Z,14.6544
2023-05-13T03:38:31.310Z,14.6703
2023-05-13T03:39:32.743Z,14.6750
2023-05-13T03:40:34.235Z,14.7007
2023-05-13T03:41:35.674Z,14.7148
2023-05-13T03:42:37.011Z,14.7161
2023-05-13T03:43:38.448Z,14.6889
2023-05-13T03:44:39.933Z,14.6546
2023-05-13T03:45:41.344Z,14.6879
2023-05-13T03:46:42.803Z,14.7052
2023-05-13T03:47:44.166Z,14.7097
2023-05-13T03:48:45.563Z,14.7208
2023-05-13T03:49:46.950Z,14.7284
2023-05-13T03:50:48.473Z,14.7208
2023-05-13T03:51:49.875Z,14.6871
2023-05-13T03:52:51.266Z,14.6191
2023-05-13T03:53:52.749Z,14.6536
2023-05-13T03:54:54.133Z,14.6731
2023-05-13T03:55:55.579Z,14.6906
2023-05-13T03:56:56.998Z,14.6996
2023-05-13T03:57:58.415Z,14.7087
2023-05-13T03:58:59.912Z,14.7191
2023-05-13T04:00:01.269Z,14.7185
2023-05-13T04:01:02.774Z,14.6592
2023-05-13T04:02:04.148Z,14.6450
2023-05-13T04:03:05.629Z,14.6779
2023-05-13T04:04:06.928Z,14.6922
2023-05-13T04:05:08.518Z,14.6945
2023-05-13T04:06:09.816Z,14.7052
2023-05-13T04:07:11.333Z,14.7208
2023-05-13T04:08:12.645Z,14.7274
2023-05-13T04:09:14.088Z,14.6912
2023-05-13T04:10:15.949Z,14.6019
2023-05-13T04:11:16.968Z,14.6148
2023-05-13T04:12:18.402Z,14.6583
2023-05-13T04:13:19.862Z,14.6470
2023-05-13T04:14:21.205Z,14.6462
2023-05-13T04:15:22.675Z,14.6555
2023-05-13T04:16:24.205Z,14.6733
2023-05-13T04:17:25.587Z,14.6799
2023-05-13T04:18:26.966Z,14.6939
2023-05-13T04:19:28.377Z,14.6892
2023-05-13T04:20:29.781Z,14.6996
2023-05-13T04:21:31.239Z,14.7146
2023-05-13T04:22:33.350Z,14.7296
2023-05-13T04:23:34.085Z,14.7407
2023-05-13T04:24:35.499Z,14.7489
2023-05-13T04:25:36.919Z,14.7684
2023-05-13T04:26:38.412Z,14.7738
2023-05-13T04:27:39.896Z,14.7812
2023-05-13T04:28:41.132Z,14.7775
2023-05-13T04:29:42.552Z,14.7804
2023-05-13T04:30:44.122Z,14.7699
2023-05-13T04:31:45.649Z,14.7647
2023-05-13T04:32:47.039Z,14.7701
2023-05-13T04:33:48.402Z,14.7625
2023-05-13T04:34:49.807Z,14.7888
2023-05-13T04:35:51.216Z,14.7873
2023-05-13T04:36:52.595Z,14.7978
2023-05-13T04:37:54.170Z,14.8106
2023-05-13T04:38:55.513Z,14.8155
2023-05-13T04:39:56.923Z,14.7997
2023-05-13T04:40:58.345Z,14.7954
2023-05-13T04:41:59.828Z,14.7853
2023-05-13T04:43:01.264Z,14.7896
2023-05-13T04:44:02.621Z,14.8060
2023-05-13T04:45:04.122Z,14.8064
2023-05-13T04:46:05.404Z,14.8145
2023-05-13T04:47:06.990Z,14.8214
2023-05-13T04:48:08.323Z,14.8334
2023-05-13T04:49:09.779Z,14.8362
2023-05-13T04:50:11.276Z,14.8362
2023-05-13T04:51:12.660Z,14.8249
2023-05-13T04:52:14.128Z,14.8177
2023-05-13T04:53:15.522Z,14.8210
2023-05-13T04:54:16.920Z,14.8147
2023-05-13T04:55:18.376Z,14.8262
2023-05-13T04:56:19.808Z,14.8338
2023-05-13T04:57:21.194Z,14.8253
2023-05-13T04:58:22.675Z,14.8377
2023-05-13T04:59:24.138Z,14.8410
2023-05-13T05:00:25.477Z,14.8461
2023-05-13T05:01:27.019Z,14.8327
2023-05-13T05:02:29.421Z,14.8321
2023-05-13T05:03:29.882Z,14.8336
2023-05-13T05:04:31.194Z,14.8315
2023-05-13T05:05:32.549Z,14.8381
2023-05-13T05:06:34.045Z,14.8436
2023-05-13T05:07:35.535Z,14.8543
2023-05-13T05:08:36.955Z,14.8658
2023-05-13T05:09:38.399Z,14.8707
2023-05-13T05:10:39.844Z,14.8633
2023-05-13T05:11:41.232Z,14.8290
2023-05-13T05:12:42.684Z,14.8116
2023-05-13T05:13:44.164Z,14.8177
2023-05-13T05:14:45.518Z,14.8229
2023-05-13T05:15:46.894Z,14.8364
2023-05-13T05:16:48.543Z,14.8420
2023-05-13T05:17:49.904Z,14.8455
2023-05-13T05:18:51.282Z,14.8529
2023-05-13T05:19:52.724Z,14.8611
2023-05-13T05:20:54.277Z,14.8699
2023-05-13T05:21:55.508Z,14.8258
2023-05-13T05:22:57.078Z,14.7758
2023-05-13T05:23:58.522Z,14.7843
2023-05-13T05:24:59.892Z,14.8208
2023-05-13T05:26:11.325Z,14.8500
2023-05-13T05:27:02.689Z,14.8392
2023-05-13T05:28:04.164Z,14.8613
2023-05-13T05:29:05.665Z,14.8674
2023-05-13T05:30:07.018Z,14.8744
2023-05-13T05:31:08.520Z,14.8781
2023-05-13T05:32:09.852Z,14.7777
2023-05-13T05:33:11.199Z,14.7389
2023-05-13T05:34:12.702Z,14.7615
2023-05-13T05:35:14.104Z,14.8130
2023-05-13T05:36:15.537Z,14.8483
2023-05-13T05:37:16.973Z,14.8650
2023-05-13T05:38:19.387Z,14.8911
2023-05-13T05:39:19.880Z,14.9128
2023-05-13T05:40:21.489Z,14.8898
2023-05-13T05:41:22.687Z,14.7664
2023-05-13T05:42:24.094Z,14.7880
2023-05-13T05:43:25.397Z,14.8354
2023-05-13T05:44:26.965Z,14.8808
2023-05-13T05:45:28.372Z,14.9063
2023-05-13T05:46:29.828Z,14.9157
2023-05-13T05:47:31.234Z,14.9356
2023-05-13T05:48:34.354Z,14.8584
2023-05-13T05:49:34.105Z,14.7578
2023-05-13T05:50:35.521Z,14.7742
2023-05-13T05:51:36.909Z,14.8313
2023-05-13T05:52:38.393Z,14.8767
2023-05-13T05:53:39.790Z,14.9077
2023-05-13T05:54:41.211Z,14.9319
2023-05-13T05:55:42.582Z,14.9391
2023-05-13T05:56:44.090Z,14.8056
2023-05-13T05:57:45.483Z,14.7968
2023-05-13T05:58:46.911Z,14.8410
2023-05-13T05:59:48.381Z,14.9141
2023-05-13T06:00:49.820Z,14.9465
2023-05-13T06:01:51.210Z,14.9685
2023-05-13T06:02:52.701Z,14.9925
2023-05-13T06:03:55.048Z,15.0355
2023-05-13T06:04:55.490Z,15.0451
2023-05-13T06:05:56.827Z,15.0714
2023-05-13T06:06:58.340Z,15.0940
2023-05-13T06:07:59.747Z,15.1271
2023-05-13T06:09:01.170Z,15.1550
2023-05-13T06:10:02.541Z,15.1723
2023-05-13T06:11:03.893Z,15.2458
2023-05-13T06:12:05.383Z,15.3395
2023-05-13T06:13:06.911Z,15.5903
2023-05-13T06:14:08.336Z,16.0001
2023-05-13T06:15:09.811Z,16.4347
2023-05-13T06:16:11.052Z,16.8827
2023-05-13T06:17:12.568Z,17.2031
2023-05-13T06:18:14.009Z,17.6240
2023-05-13T06:19:15.457Z,17.9163
2023-05-13T06:20:16.836Z,17.9664
2023-05-13T06:21:18.309Z,17.9771
2023-05-13T06:22:19.626Z,18.1560
2023-05-13T06:23:21.090Z,18.3390
2023-05-13T06:24:22.526Z,18.7176
2023-05-13T06:25:23.986Z,19.2773
2023-05-13T06:26:25.332Z,19.7707
2023-05-13T06:27:26.806Z,20.1754
2023-05-13T06:28:28.182Z,20.4520
2023-05-13T06:29:29.645Z,20.8066
2023-05-13T06:30:31.029Z,20.8982
2023-05-13T06:31:32.463Z,20.6106
2023-05-13T06:32:33.887Z,20.4138
2023-05-13T06:33:35.368Z,20.5229
2023-05-13T06:34:36.760Z,20.6123
2023-05-13T06:35:38.211Z,20.8887
2023-05-13T06:36:39.516Z,21.3749
2023-05-13T06:37:40.969Z,21.6831
2023-05-13T06:38:42.383Z,21.2917
2023-05-13T06:39:43.878Z,21.1383
2023-05-13T06:40:45.293Z,21.1022
2023-05-13T06:41:46.686Z,21.2192
2023-05-13T06:42:48.126Z,21.4236
2023-05-13T06:43:49.463Z,21.7365
2023-05-13T06:44:50.983Z,22.0686
2023-05-13T06:45:52.354Z,21.8174
2023-05-13T06:46:53.720Z,21.6066
2023-05-13T06:47:55.185Z,21.5512
2023-05-13T06:48:56.616Z,21.6496
2023-05-13T06:49:58.086Z,21.7161
2023-05-13T06:50:59.600Z,21.9096
2023-05-13T06:52:00.908Z,21.8155
2023-05-13T06:53:02.282Z,21.7009
2023-05-13T06:54:03.734Z,21.7048
2023-05-13T06:55:05.226Z,21.8595
2023-05-13T06:56:06.619Z,22.0481
2023-05-13T06:57:07.973Z,22.2163
2023-05-13T06:58:09.432Z,22.0400
2023-05-13T06:59:10.878Z,21.9967
2023-05-13T07:00:12.264Z,22.0799
2023-05-13T07:01:13.716Z,22.1900
2023-05-13T07:02:15.123Z,22.3531
2023-05-13T07:03:16.627Z,22.2038
2023-05-13T07:04:18.047Z,22.0585
2023-05-13T07:05:19.415Z,22.0526
2023-05-13T07:06:20.855Z,22.2726
2023-05-13T07:07:22.203Z,22.4472
2023-05-13T07:08:23.724Z,22.3675
2023-05-13T07:09:25.073Z,22.2535
2023-05-13T07:10:26.546Z,22.2761
2023-05-13T07:11:28.005Z,22.3816
2023-05-13T07:12:29.444Z,22.5513
2023-05-13T07:13:30.805Z,22.5809
2023-05-13T07:14:32.205Z,22.3531
2023-05-13T07:15:33.608Z,22.2748
2023-05-13T07:16:35.110Z,22.4231
2023-05-13T07:17:36.533Z,22.6460
2023-05-13T07:18:37.948Z,22.5885
2023-05-13T07:19:39.297Z,22.4207
2023-05-13T07:20:40.774Z,22.4073
2023-05-13T07:21:42.237Z,22.5392
2023-05-13T07:22:43.591Z,22.7154
2023-05-13T07:23:45.057Z,22.6355
2023-05-13T07:24:46.466Z,22.5269
2023-05-13T07:25:47.917Z,22.5213
2023-05-13T07:26:49.377Z,22.6883
2023-05-13T07:27:50.726Z,22.7988
2023-05-13T07:28:52.143Z,22.6526
2023-05-13T07:29:53.479Z,22.4786
2023-05-13T07:30:55.153Z,22.5521
2023-05-13T07:31:56.493Z,22.7119
2023-05-13T07:32:58.103Z,22.7814
2023-05-13T07:33:59.248Z,22.6762
2023-05-13T07:35:00.712Z,22.6842
2023-05-13T07:36:02.063Z,22.7341
2023-05-13T07:37:03.556Z,22.9095
2023-05-13T07:38:04.971Z,22.8013
2023-05-13T07:39:07.108Z,22.6973
2023-05-13T07:40:07.773Z,22.7078
2023-05-13T07:41:09.281Z,22.8485
2023-05-13T07:42:10.728Z,22.9599
2023-05-13T07:43:12.209Z,22.8728
2023-05-13T07:44:13.384Z,22.8302
2023-05-13T07:45:15.020Z,22.8986
2023-05-13T07:46:16.280Z,23.0011
2023-05-13T07:47:17.839Z,22.9837
2023-05-13T07:48:19.293Z,22.8596
2023-05-13T07:49:20.516Z,22.8116
2023-05-13T07:50:22.052Z,22.9231
2023-05-13T07:51:23.511Z,23.0517
2023-05-13T07:52:24.897Z,22.9313
2023-05-13T07:53:26.339Z,22.8422
2023-05-13T07:54:27.762Z,22.8767
2023-05-13T07:55:29.183Z,23.0022
2023-05-13T07:56:30.630Z,23.0110
2023-05-13T07:57:32.098Z,22.9153
2023-05-13T07:58:33.360Z,22.9348
2023-05-13T07:59:34.926Z,23.0215
2023-05-13T08:00:36.370Z,23.0513
2023-05-13T08:01:37.760Z,22.9044
2023-05-13T08:02:39.318Z,22.8662
2023-05-13T08:03:40.818Z,22.9385
2023-05-13T08:04:42.092Z,23.0882
2023-05-13T08:05:43.398Z,23.1291
2023-05-13T08:06:44.839Z,23.0053
2023-05-13T08:07:46.321Z,23.0457
2023-05-13T08:08:47.607Z,23.1924
2023-05-13T08:09:49.105Z,23.2482
2023-05-13T08:10:50.560Z,23.0172
2023-05-13T08:11:51.994Z,22.7559
2023-05-13T08:12:53.298Z,22.5813
2023-05-13T08:13:54.856Z,22.4285
2023-05-13T08:14:56.262Z,22.1598
2023-05-13T08:15:57.678Z,21.8293
2023-05-13T08:16:59.047Z,21.6027
2023-05-13T08:18:00.660Z,21.5378
2023-05-13T08:19:02.011Z,21.4830
2023-05-13T08:20:03.851Z,21.4094
2023-05-13T08:21:04.877Z,21.1455
2023-05-13T08:22:06.191Z,20.8709
2023-05-13T08:23:07.648Z,20.8031
2023-05-13T08:24:09.131Z,20.7102
2023-05-13T08:25:10.457Z,20.6895
2023-05-13T08:26:11.913Z,20.6355
2023-05-13T08:27:13.411Z,20.3756
2023-05-13T08:28:14.823Z,20.1515
2023-05-13T08:29:16.165Z,20.0825
2023-05-13T08:30:17.607Z,20.0829
2023-05-13T08:31:19.068Z,20.0852
2023-05-13T08:32:20.472Z,20.0712
2023-05-13T08:33:21.876Z,19.9841
2023-05-13T08:34:23.987Z,19.7204
2023-05-13T08:35:24.854Z,19.6321
2023-05-13T08:36:26.193Z,19.5924
2023-05-13T08:37:27.543Z,19.6078
2023-05-13T08:38:29.011Z,19.6201
2023-05-13T08:39:30.457Z,19.6586
2023-05-13T08:40:31.803Z,19.5431
2023-05-13T08:41:33.213Z,19.3285
2023-05-13T08:42:34.642Z,19.2691
2023-05-13T08:43:36.104Z,19.2962
2023-05-13T08:44:37.590Z,19.3069
2023-05-13T08:45:38.947Z,19.3252
2023-05-13T08:46:40.411Z,19.3209
2023-05-13T08:47:41.673Z,19.1872
2023-05-13T08:48:43.263Z,18.9910
2023-05-13T08:49:44.690Z,18.9014
2023-05-13T08:50:46.027Z,18.9199
2023-05-13T08:51:47.610Z,18.9440
2023-05-13T08:52:48.879Z,18.9801
2023-05-13T08:53:50.315Z,19.0187
2023-05-13T08:54:51.751Z,19.0310
2023-05-13T08:55:53.176Z,18.8326
2023-05-13T08:56:54.593Z,18.6636
2023-05-13T08:57:55.990Z,18.6777
2023-05-13T08:58:57.475Z,18.7160
2023-05-13T08:59:58.874Z,18.7556
2023-05-13T09:01:00.371Z,18.7634
2023-05-13T09:02:01.702Z,18.7932
2023-05-13T09:03:03.147Z,18.8061
2023-05-13T09:04:04.634Z,18.6032
2023-05-13T09:05:05.996Z,18.5354
2023-05-13T09:06:07.397Z,18.6202
2023-05-13T09:07:08.796Z,18.6459
2023-05-13T09:08:10.311Z,18.6597
2023-05-13T09:09:11.676Z,18.7071
2023-05-13T09:10:13.153Z,18.7420
2023-05-13T09:11:14.451Z,18.6882
2023-05-13T09:12:15.920Z,18.4888
2023-05-13T09:13:17.336Z,18.4497
2023-05-13T09:14:18.881Z,18.5200
2023-05-13T09:15:20.437Z,18.5911
2023-05-13T09:16:21.646Z,18.6198
2023-05-13T09:17:22.986Z,18.6114
2023-05-13T09:18:24.838Z,18.6309
2023-05-13T09:19:25.945Z,18.6749
2023-05-13T09:20:27.342Z,18.5909
2023-05-13T09:21:28.803Z,18.5395
2023-05-13T09:22:30.115Z,18.5611
2023-05-13T09:23:31.657Z,18.5962
2023-05-13T09:24:33.141Z,18.6241
2023-05-13T09:25:34.523Z,18.6024
2023-05-13T09:26:35.936Z,18.6449
2023-05-13T09:27:37.358Z,18.6660
2023-05-13T09:28:38.829Z,18.5027
2023-05-13T09:29:40.211Z,18.4725
2023-05-13T09:30:43.299Z,18.5144
2023-05-13T09:31:43.020Z,18.5494
2023-05-13T09:32:44.494Z,18.5537
2023-05-13T09:33:45.788Z,18.5672
2023-05-13T09:34:47.402Z,18.6428
2023-05-13T09:35:48.800Z,18.6580
2023-05-13T09:36:51.242Z,18.4888
2023-05-13T09:37:51.565Z,18.4191
2023-05-13T09:38:53.063Z,18.4321
2023-05-13T09:39:54.464Z,18.4415
2023-05-13T09:40:56.140Z,18.4520
2023-05-13T09:41:57.306Z,18.5235
2023-05-13T09:42:58.686Z,18.6100
2023-05-13T09:44:00.155Z,18.6287
2023-05-13T09:45:01.601Z,18.4623
2023-05-13T09:46:02.997Z,18.4356
2023-05-13T09:47:04.408Z,18.4263
2023-05-13T09:48:05.870Z,18.4257
2023-05-13T09:49:07.300Z,18.4374
2023-05-13T09:50:08.728Z,18.5223
2023-05-13T09:51:10.172Z,18.6245
2023-05-13T09:52:11.670Z,18.6143
2023-05-13T09:53:12.941Z,18.4530
2023-05-13T09:54:14.338Z,18.4321
2023-05-13T09:55:15.893Z,18.4317
2023-05-13T09:56:17.257Z,18.3803
2023-05-13T09:57:18.618Z,18.4415
2023-05-13T09:58:20.017Z,18.5029
2023-05-13T09:59:21.529Z,18.5804
2023-05-13T10:00:32.094Z,18.5820
2023-05-13T10:01:24.408Z,18.3784
2023-05-13T10:02:25.818Z,18.2918
2023-05-13T10:03:27.169Z,18.2817
2023-05-13T10:04:28.672Z,18.2347
2023-05-13T10:05:30.111Z,18.2992
2023-05-13T10:06:31.517Z,18.4175
2023-05-13T10:07:32.893Z,18.4990
2023-05-13T10:08:34.309Z,18.5218
2023-05-13T10:09:35.677Z,18.2957
2023-05-13T10:10:37.236Z,18.2392
2023-05-13T10:11:38.674Z,18.2043
2023-05-13T10:12:40.067Z,18.2018
2023-05-13T10:13:41.421Z,18.2986
2023-05-13T10:14:42.964Z,18.3581
2023-05-13T10:15:44.336Z,18.4473
2023-05-13T10:16:45.773Z,18.4662
2023-05-13T10:17:47.127Z,18.2509
2023-05-13T10:18:48.562Z,18.1714
2023-05-13T10:19:50.025Z,18.1359
2023-05-13T10:20:51.247Z,18.1334
2023-05-13T10:21:52.854Z,18.1903
2023-05-13T10:22:54.210Z,18.2560
2023-05-13T10:23:55.602Z,18.3014
2023-05-13T10:24:57.100Z,18.3325
2023-05-13T10:25:58.488Z,18.2495
2023-05-13T10:26:59.928Z,18.0806
2023-05-13T10:28:01.342Z,18.0163
2023-05-13T10:29:02.713Z,17.9853
2023-05-13T10:30:04.205Z,18.0439
2023-05-13T10:31:05.642Z,18.1270
2023-05-13T10:32:07.062Z,18.1817
2023-05-13T10:33:08.472Z,18.2100
2023-05-13T10:34:09.805Z,18.2337
2023-05-13T10:35:11.283Z,18.0480
2023-05-13T10:36:12.689Z,17.9391
2023-05-13T10:37:14.151Z,17.9251
2023-05-13T10:38:15.599Z,17.8960
2023-05-13T10:39:17.010Z,17.9865
2023-05-13T10:40:18.385Z,18.0422
2023-05-13T10:41:19.838Z,18.0993
2023-05-13T10:42:21.230Z,18.1480
2023-05-13T10:43:22.643Z,18.1895
2023-05-13T10:44:24.079Z,18.1540
2023-05-13T10:45:25.578Z,17.9438
2023-05-13T10:46:26.951Z,17.9032
2023-05-13T10:47:28.539Z,17.8760
2023-05-13T10:48:29.744Z,17.9432
2023-05-13T10:49:31.309Z,18.0285
2023-05-13T10:50:32.641Z,18.0989
2023-05-13T10:51:34.131Z,18.1669
2023-05-13T10:52:35.421Z,18.2076
2023-05-13T10:53:36.772Z,18.1213
2023-05-13T10:54:38.293Z,17.9687
2023-05-13T10:55:39.656Z,17.9412
2023-05-13T10:56:42.108Z,17.9177
2023-05-13T10:57:42.547Z,18.0278
2023-05-13T10:58:43.996Z,18.1581
2023-05-13T10:59:45.392Z,18.2388
2023-05-13T11:00:46.731Z,18.3318
2023-05-13T11:01:48.380Z,18.3314
2023-05-13T11:02:49.886Z,18.1603
2023-05-13T11:03:51.089Z,18.1336
2023-05-13T11:04:52.647Z,18.1273
2023-05-13T11:05:53.947Z,18.1989
2023-05-13T11:06:55.464Z,18.3045
2023-05-13T11:07:56.877Z,18.4282
2023-05-13T11:08:58.303Z,18.5188
2023-05-13T11:09:59.697Z,18.4438
2023-05-13T11:11:01.166Z,18.2793
2023-05-13T11:12:02.531Z,18.2219
2023-05-13T11:13:03.936Z,18.2273
2023-05-13T11:14:07.053Z,18.2947
2023-05-13T11:15:06.789Z,18.4239
2023-05-13T11:16:08.239Z,18.5274
2023-05-13T11:17:09.770Z,18.5878
2023-05-13T11:18:11.161Z,18.4863
2023-05-13T11:19:12.612Z,18.3992
2023-05-13T11:20:13.895Z,18.3801
2023-05-13T11:21:15.350Z,18.4124
2023-05-13T11:22:16.770Z,18.5081
2023-05-13T11:23:18.209Z,18.5872
2023-05-13T11:24:19.575Z,18.6578
2023-05-13T11:25:21.086Z,18.6971
2023-05-13T11:26:22.411Z,18.5079
2023-05-13T11:27:23.878Z,18.4364
2023-05-13T11:28:25.295Z,18.4274
2023-05-13T11:29:26.728Z,18.4497
2023-05-13T11:30:28.430Z,18.5584
2023-05-13T11:31:29.565Z,18.6888
2023-05-13T11:32:30.957Z,18.7671
2023-05-13T11:33:32.501Z,18.6816
2023-05-13T11:34:33.809Z,18.5338
2023-05-13T11:35:35.288Z,18.4900
2023-05-13T11:36:36.631Z,18.4937
2023-05-13T11:37:38.077Z,18.5027
2023-05-13T11:38:39.490Z,18.6551
2023-05-13T11:39:40.967Z,18.7899
2023-05-13T11:40:42.314Z,18.8410
2023-05-13T11:41:43.809Z,18.5331
2023-05-13T11:42:45.181Z,18.3396
2023-05-13T11:43:46.520Z,18.3772
2023-05-13T11:44:47.965Z,18.4647
2023-05-13T11:45:49.519Z,18.4654
2023-05-13T11:46:50.823Z,18.5642
2023-05-13T11:47:52.275Z,18.6788
2023-05-13T11:48:53.719Z,18.8086
2023-05-13T11:49:55.137Z,18.8753
2023-05-13T11:50:56.462Z,18.6295
2023-05-13T11:51:58.003Z,18.5015
2023-05-13T11:52:59.269Z,18.5781
2023-05-13T11:54:00.752Z,18.6899
2023-05-13T11:55:02.217Z,18.6517
2023-05-13T11:56:03.607Z,18.6929
2023-05-13T11:57:05.053Z,18.8351
2023-05-13T11:58:06.470Z,18.9513
2023-05-13T11:59:07.869Z,18.7229
2023-05-13T12:00:09.329Z,18.5824
2023-05-13T12:01:10.737Z,18.5974
2023-05-13T12:02:12.260Z,18.6293
2023-05-13T12:03:13.678Z,18.6247
2023-05-13T12:04:15.117Z,18.6771
2023-05-13T12:05:16.440Z,18.8283
2023-05-13T12:06:17.805Z,18.9809
2023-05-13T12:07:19.308Z,18.8435
2023-05-13T12:08:22.440Z,18.6254
2023-05-13T12:09:22.202Z,18.6093
2023-05-13T12:10:23.544Z,18.7521
2023-05-13T12:11:24.933Z,18.8636
2023-05-13T12:12:26.340Z,18.9789
2023-05-13T12:13:27.898Z,19.1738
2023-05-13T12:14:29.278Z,19.1426
2023-05-13T12:15:30.706Z,18.9778
2023-05-13T12:16:32.364Z,18.9875
2023-05-13T12:17:33.474Z,19.0692
2023-05-13T12:18:34.982Z,19.2406
2023-05-13T12:19:36.242Z,19.3346
2023-05-13T12:20:37.828Z,19.3334
2023-05-13T12:21:39.211Z,19.1270
2023-05-13T12:22:40.614Z,19.0413